Time;durP1;ratioP1;P1;durP2;ratioP2;P2;SDS_P1;SDS_P2;PMS_P1;PMS_P2;Temp;Humidity;BMP_temperature;BMP_pressure;BME280_temperature;BME280_humidity;BME280_pressure;Samples;Min_cycle;Max_cycle;Signal;HPM_P1;HPM_P2
2021/11/14 00:00:33;;;;;;;24.38;11.32;;;;;;;12.77;64.29;101638.06;4996574;28;119130;-65
2021/11/14 00:03:01;;;;;;;;;;;;;;;12.74;64.29;101627.56;5005351;28;118221;-65
2021/11/14 00:05:35;;;;;;;24.33;11.15;;;;;;;12.76;64.11;101636.34;4992894;28;124361;-65
2021/11/14 00:08:03;;;;;;;22.67;10.77;;;;;;;12.75;64.26;101629.28;4986768;28;122985;-66
2021/11/14 00:10:31;;;;;;;26.70;11.95;;;;;;;12.75;64.07;101631.94;4986819;28;118010;-65
2021/11/14 00:12:58;;;;;;;25.20;11.88;;;;;;;12.75;64.13;101634.59;4985556;28;119056;-65
2021/11/14 00:15:25;;;;;;;24.42;11.85;;;;;;;12.74;64.29;101627.56;4997824;28;124020;-66
2021/11/14 00:17:53;;;;;;;30.48;12.93;;;;;;;12.74;64.19;101630.22;5005245;28;124177;-66
2021/11/14 00:20:21;;;;;;;28.33;13.02;;;;;;;12.74;64.29;101643.53;4983843;28;119220;-66
2021/11/14 00:22:49;;;;;;;32.03;13.00;;;;;;;12.73;64.21;101641.78;4990856;28;117895;-66
2021/11/14 00:25:18;;;;;;;29.98;13.10;;;;;;;12.71;64.39;101648.94;4985556;28;124323;-66
2021/11/14 00:27:47;;;;;;;31.98;13.63;;;;;;;12.68;64.34;101644.63;5001236;28;124725;-66
2021/11/14 00:30:18;;;;;;;30.20;14.30;;;;;;;12.68;64.44;101649.06;4992389;28;118348;-64
2021/11/14 00:32:46;;;;;;;28.65;13.65;;;;;;;12.65;64.41;101650.94;4987846;28;118706;-64
2021/11/14 00:35:15;;;;;;;28.90;13.13;;;;;;;12.65;64.28;101655.38;4983057;28;123989;-63
2021/11/14 00:37:43;;;;;;;24.98;12.57;;;;;;;12.63;64.38;101658.09;5002101;28;124025;-64
2021/11/14 00:40:18;;;;;;;28.60;12.45;;;;;;;12.61;64.40;101662.63;5004212;28;120305;-64
2021/11/14 00:42:45;;;;;;;25.15;12.93;;;;;;;12.59;64.62;101661.81;5001527;28;119811;-64
2021/11/14 00:45:13;;;;;;;28.13;12.43;;;;;;;12.58;64.47;101669.84;5003118;28;123954;-64
2021/11/14 00:47:40;;;;;;;25.13;13.02;;;;;;;12.57;64.76;101679.63;4987084;28;124047;-66
2021/11/14 00:50:11;;;;;;;33.63;13.65;;;;;;;12.57;64.63;101684.94;4993234;28;119180;-66
2021/11/14 00:52:40;;;;;;;27.05;12.68;;;;;;;12.54;64.61;101674.41;4982054;28;119370;-66
2021/11/14 00:55:12;;;;;;;26.70;11.60;;;;;;;12.54;64.65;101684.19;4996998;28;124342;-66
2021/11/14 00:57:40;;;;;;;21.77;11.75;;;;;;;12.52;64.54;101681.59;5003158;28;124208;-66
2021/11/14 01:00:20;;;;;;;22.75;11.88;;;;;;;12.52;64.50;101681.59;5000127;28;119520;-65
2021/11/14 01:02:48;;;;;;;21.90;11.05;;;;;;;12.50;64.56;101678.13;4998037;28;119392;-65
2021/11/14 01:05:19;;;;;;;22.25;11.32;;;;;;;12.50;64.62;101687.91;4996526;28;124672;-65
2021/11/14 01:07:47;;;;;;;23.10;12.02;;;;;;;12.51;64.55;101685.19;4994115;28;124864;-65
2021/11/14 01:10:20;;;;;;;21.08;11.15;;;;;;;12.49;64.59;101692.34;4995152;28;119776;-65
2021/11/14 01:12:47;;;;;;;21.30;11.52;;;;;;;12.48;64.62;101692.41;4996952;28;118663;-65
2021/11/14 01:15:17;;;;;;;22.60;12.35;;;;;;;12.46;64.63;101695.13;4993783;28;124796;-65
2021/11/14 01:17:44;;;;;;;23.98;11.32;;;;;;;12.45;64.59;101690.72;4993715;28;123514;-65
2021/11/14 01:20:15;;;;;;;25.77;12.43;;;;;;;12.42;64.68;101696.16;4976295;28;119353;-65
2021/11/14 01:22:44;;;;;;;22.17;11.88;;;;;;;12.41;64.55;101702.38;4982756;28;118847;-65
2021/11/14 01:25:13;;;;;;;25.20;12.10;;;;;;;12.40;64.70;101703.34;5001949;28;124490;-65
2021/11/14 01:27:41;;;;;;;25.35;12.18;;;;;;;12.39;64.66;101706.91;4979023;28;122777;-64
2021/11/14 01:30:13;;;;;;;24.20;12.10;;;;;;;12.39;64.68;101701.59;4985367;28;121031;-64
2021/11/14 01:32:42;;;;;;;23.80;11.07;;;;;;;12.41;64.87;101710.38;4996994;28;120256;-65
2021/11/14 01:35:11;;;;;;;22.50;11.32;;;;;;;12.41;64.84;101702.38;4991187;28;124033;-65
2021/11/14 01:37:41;;;;;;;23.52;11.63;;;;;;;12.42;64.69;101706.78;4995490;28;123765;-65
2021/11/14 01:40:11;;;;;;;26.40;12.77;;;;;;;12.42;64.73;101712.09;4995553;28;119198;-65
2021/11/14 01:42:39;;;;;;;24.83;12.48;;;;;;;12.42;64.71;101712.97;4996455;28;119311;-65
2021/11/14 01:45:07;;;;;;;24.83;12.30;;;;;;;12.42;64.72;101717.41;4979127;28;122881;-65
2021/11/14 01:47:34;;;;;;;27.95;12.50;;;;;;;12.42;64.76;101717.41;4996179;28;123814;-65
2021/11/14 01:50:05;;;;;;;27.25;12.13;;;;;;;12.43;65.10;101719.13;4996134;28;119352;-64
2021/11/14 01:52:32;;;;;;;24.23;12.10;;;;;;;12.43;64.89;101724.44;5000388;28;119053;-64
2021/11/14 01:54:59;;;;;;;29.88;12.88;;;;;;;12.41;64.96;101719.22;4988366;28;123201;-64
2021/11/14 01:57:27;;;;;;;30.88;12.82;;;;;;;12.40;64.81;101721.94;4964911;28;123051;-64
2021/11/14 01:59:55;;;;;;;29.85;12.63;;;;;;;12.39;65.01;101722.84;4995922;28;119325;-65
2021/11/14 02:02:22;;;;;;;29.60;12.80;;;;;;;12.36;65.00;101722.97;5000502;28;119157;-65
2021/11/14 02:04:50;;;;;;;27.60;12.35;;;;;;;12.37;65.07;101724.69;4984874;28;124025;-66
2021/11/14 02:07:18;;;;;;;31.02;13.63;;;;;;;12.38;65.06;101731.75;4977732;28;122870;-66
2021/11/14 02:09:46;;;;;;;29.60;12.73;;;;;;;12.40;65.14;101729.91;4978982;28;118356;-66
2021/11/14 02:12:13;;;;;;;32.70;13.35;;;;;;;12.42;65.31;101728.91;4993545;28;119075;-65
2021/11/14 02:14:41;;;;;;;30.67;13.80;;;;;;;12.44;65.07;101731.50;4994060;28;124163;-66
2021/11/14 02:17:10;;;;;;;34.00;13.68;;;;;;;12.46;65.02;101740.28;4994276;28;124227;-65
2021/11/14 02:19:37;;;;;;;31.05;13.30;;;;;;;12.46;65.24;101734.97;4997673;28;120199;-65
2021/11/14 02:22:05;;;;;;;32.60;13.52;;;;;;;12.47;65.30;101734.06;4988073;28;119188;-66
2021/11/14 02:24:32;;;;;;;33.35;13.32;;;;;;;12.48;65.06;101738.44;4969131;28;124039;-66
2021/11/14 02:26:59;;;;;;;34.65;13.32;;;;;;;12.49;65.20;101740.19;4994171;28;123791;-66
2021/11/14 02:29:26;;;;;;;31.30;13.20;;;;;;;12.51;65.25;101737.44;4988166;28;118311;-66
2021/11/14 02:31:58;;;;;;;34.33;13.70;;;;;;;12.51;65.07;101738.31;5004049;28;119138;-65
2021/11/14 02:34:25;;;;;;;34.47;14.50;;;;;;;12.52;65.13;101745.34;4996787;28;124029;-65
2021/11/14 02:36:52;;;;;;;36.50;14.45;;;;;;;12.52;65.16;101755.97;4989741;28;123895;-65
2021/11/14 02:39:20;;;;;;;35.33;14.23;;;;;;;12.52;65.32;101744.50;4990035;28;119289;-65
2021/11/14 02:41:47;;;;;;;38.03;13.90;;;;;;;12.53;65.49;101748.91;4994091;28;119474;-65
2021/11/14 02:44:15;;;;;;;36.05;14.65;;;;;;;12.53;65.18;101752.41;4992484;28;124144;-65
2021/11/14 02:46:42;;;;;;;34.20;14.90;;;;;;;12.56;65.41;101752.28;5001487;28;124658;-65
2021/11/14 02:49:09;;;;;;;32.83;15.32;;;;;;;12.56;65.25;101757.59;4983488;28;118305;-64
2021/11/14 02:51:37;;;;;;;37.53;14.45;;;;;;;12.59;65.29;101757.47;4982374;28;118278;-65
2021/11/14 02:54:05;;;;;;;35.17;14.55;;;;;;;12.60;65.37;101764.53;4995644;28;124359;-65
2021/11/14 02:56:33;;;;;;;36.33;13.75;;;;;;;12.61;65.22;101766.25;4984067;28;124599;-64
2021/11/14 02:59:01;;;;;;;40.40;14.27;;;;;;;12.62;65.29;101765.34;4996984;28;119343;-65
2021/11/14 03:01:34;;;;;;;37.03;13.98;;;;;;;12.62;65.42;101760.03;4999519;28;119383;-65
2021/11/14 03:04:02;;;;;;;35.33;14.60;;;;;;;12.64;65.35;101771.47;4976927;28;124031;-65
2021/11/14 03:06:30;;;;;;;37.58;14.82;;;;;;;12.65;65.31;101762.56;4997359;28;124222;-65
2021/11/14 03:08:58;;;;;;;30.65;13.00;;;;;;;12.68;65.18;101766.00;4995011;28;120240;-65
2021/11/14 03:11:26;;;;;;;31.65;13.73;;;;;;;12.66;65.09;101768.75;4996611;28;119977;-66
2021/11/14 03:13:53;;;;;;;33.55;14.05;;;;;;;12.68;65.29;101776.66;4979206;28;123055;-67
2021/11/14 03:16:24;;;;;;;30.88;13.77;;;;;;;12.65;65.21;101778.50;4991089;28;124149;-66
2021/11/14 03:18:52;;;;;;;35.88;14.43;;;;;;;12.65;65.05;101783.81;5001369;28;119799;-66
2021/11/14 03:21:19;;;;;;;30.95;12.88;;;;;;;12.65;65.36;101782.97;4976792;28;118879;-66
2021/11/14 03:23:46;;;;;;;33.30;14.30;;;;;;;12.64;65.33;101787.41;4992286;28;124156;-66
2021/11/14 03:26:14;;;;;;;31.58;13.88;;;;;;;12.62;65.25;101789.25;4975412;28;124612;-66
2021/11/14 03:28:42;;;;;;;32.72;14.05;;;;;;;12.62;65.37;101794.59;4976860;28;118328;-66
2021/11/14 03:31:10;;;;;;;33.72;14.43;;;;;;;12.62;65.47;101789.25;4978131;28;119358;-65
2021/11/14 03:33:37;;;;;;;34.80;14.15;;;;;;;12.63;65.54;101790.97;4993872;28;124028;-65
2021/11/14 03:36:08;;;;;;;38.58;14.18;;;;;;;12.64;65.49;101798.03;5001348;28;123999;-65
2021/11/14 03:39:00;;;;;;;39.58;15.00;;;;;;;12.62;65.37;101794.59;4977052;28;119530;-65
2021/11/14 03:41:31;;;;;;;36.53;14.88;;;;;;;12.62;65.39;101799.91;4973598;28;119043;-64
2021/11/14 03:43:59;;;;;;;38.90;14.88;;;;;;;12.63;65.64;101806.94;4979250;28;122965;-65
2021/11/14 03:46:27;;;;;;;37.35;15.25;;;;;;;12.63;65.64;101806.94;4994627;28;125134;-64
2021/11/14 03:48:56;;;;;;;38.42;14.55;;;;;;;12.64;65.63;101807.81;4997311;28;119026;-64
2021/11/14 03:51:25;;;;;;;46.28;16.17;;;;;;;12.65;65.64;101815.72;4996491;28;119540;-64
2021/11/14 03:53:54;;;;;;;43.13;16.65;;;;;;;12.65;65.63;101821.03;4997515;28;124056;-65
2021/11/14 03:56:22;;;;;;;45.38;15.30;;;;;;;12.65;65.66;101820.16;4955965;28;122931;-64
2021/11/14 03:58:49;;;;;;;41.53;16.00;;;;;;;12.64;65.41;101824.63;4988781;28;119948;-64
2021/11/14 04:01:21;;;;;;;41.20;16.60;;;;;;;12.66;65.81;101824.56;4994574;28;120278;-64
2021/11/14 04:03:51;;;;;;;49.70;17.52;;;;;;;12.69;65.70;101826.22;4992684;28;123993;-65
2021/11/14 04:06:19;;;;;;;50.08;16.58;;;;;;;12.70;65.74;101833.28;4997475;28;123971;-64
2021/11/14 04:08:47;;;;;;;51.45;17.77;;;;;;;12.71;65.80;101829.69;4993235;28;119104;-64
2021/11/14 04:11:15;;;;;;;48.28;16.67;;;;;;;12.72;65.97;101842.06;4974162;28;118039;-64
2021/11/14 04:13:42;;;;;;;49.70;17.30;;;;;;;12.74;65.79;101840.22;4989411;28;124367;-64
2021/11/14 04:16:10;;;;;;;45.65;16.85;;;;;;;12.76;66.00;101838.38;4996294;28;123910;-64
2021/11/14 04:18:38;;;;;;;50.20;16.67;;;;;;;12.77;65.95;101837.44;4982243;28;119438;-64
2021/11/14 04:21:07;;;;;;;46.00;17.52;;;;;;;12.79;66.00;101838.22;4986411;28;119787;-65
2021/11/14 04:23:35;;;;;;;49.38;17.90;;;;;;;12.81;65.88;101847.03;4972454;28;124097;-65
2021/11/14 04:26:03;;;;;;;49.85;17.05;;;;;;;12.82;65.82;101843.44;4988861;28;123929;-64
2021/11/14 04:28:31;;;;;;;42.28;16.45;;;;;;;12.83;65.85;101845.19;4972382;28;118786;-65
2021/11/14 04:30:58;;;;;;;43.42;17.90;;;;;;;12.84;65.77;101844.25;4981007;28;118548;-64
2021/11/14 04:33:25;;;;;;;49.50;16.50;;;;;;;12.85;65.82;101843.34;5000553;28;123188;-64
2021/11/14 04:35:53;;;;;;;51.38;17.60;;;;;;;12.86;65.98;101850.38;4993873;28;124651;-64
2021/11/14 04:38:20;;;;;;;51.30;17.15;;;;;;;12.87;65.87;101852.13;4998024;28;119101;-64
2021/11/14 04:40:50;;;;;;;44.28;16.35;;;;;;;12.90;65.70;101845.81;4993056;28;119545;-64
2021/11/14 04:43:19;;;;;;;47.72;17.58;;;;;;;12.88;65.95;101848.50;4992537;28;124365;-64
2021/11/14 04:45:48;;;;;;;46.63;17.98;;;;;;;12.89;65.87;101852.94;4993719;28;123738;-64
2021/11/14 04:48:16;;;;;;;50.33;17.88;;;;;;;12.91;65.82;101847.56;4995631;28;120219;-64
2021/11/14 04:50:44;;;;;;;51.30;19.00;;;;;;;12.91;65.92;101842.22;4997760;28;119742;-64
2021/11/14 04:53:11;;;;;;;49.38;17.35;;;;;;;12.92;66.17;101850.16;4998258;28;125252;-64
2021/11/14 04:55:40;;;;;;;48.03;18.02;;;;;;;12.92;65.87;101850.16;4997247;28;124096;-64
2021/11/14 04:58:08;;;;;;;47.17;16.75;;;;;;;12.94;65.71;101852.72;5002001;28;119358;-64
2021/11/14 05:00:40;;;;;;;52.65;17.95;;;;;;;12.94;66.09;101858.94;5002435;28;119053;-64
2021/11/14 05:03:08;;;;;;;46.10;17.95;;;;;;;12.95;66.10;101855.34;4994457;28;124036;-65
2021/11/14 05:05:37;;;;;;;47.05;18.10;;;;;;;12.95;65.94;101860.66;5000157;28;123854;-65
2021/11/14 05:08:05;;;;;;;46.47;17.27;;;;;;;12.96;65.96;101873.03;4980361;28;118224;-65
2021/11/14 05:10:33;;;;;;;48.30;17.17;;;;;;;12.96;65.81;101873.03;4994182;28;119979;-65
2021/11/14 05:13:01;;;;;;;48.35;18.45;;;;;;;12.95;65.93;101876.59;4999377;28;124224;-65
2021/11/14 05:15:28;;;;;;;54.60;19.33;;;;;;;12.94;65.92;101880.22;4997660;28;123799;-66
2021/11/14 05:17:55;;;;;;;47.40;18.48;;;;;;;12.92;65.98;101876.75;4999043;28;119866;-65
2021/11/14 05:20:22;;;;;;;52.13;19.02;;;;;;;12.93;65.95;101882.91;4982934;28;118710;-65
2021/11/14 05:22:49;;;;;;;46.53;18.60;;;;;;;12.91;66.03;101884.78;4997652;28;124486;-65
2021/11/14 05:25:17;;;;;;;42.90;17.10;;;;;;;12.91;66.03;101884.78;5002386;28;124319;-66
2021/11/14 05:27:44;;;;;;;46.35;17.73;;;;;;;12.93;66.05;101889.09;5000565;28;118824;-66
2021/11/14 05:30:11;;;;;;;50.92;18.55;;;;;;;12.94;66.05;101896.16;4995131;28;119257;-66
2021/11/14 05:32:39;;;;;;;44.10;18.50;;;;;;;12.94;66.27;101901.47;4996770;28;123762;-65
2021/11/14 05:35:09;;;;;;;44.45;17.98;;;;;;;12.94;66.11;101897.94;4997243;28;123169;-65
2021/11/14 05:37:37;;;;;;;47.80;17.98;;;;;;;12.95;66.29;101892.56;4998842;28;119511;-64
2021/11/14 05:40:06;;;;;;;42.03;17.20;;;;;;;12.96;66.03;101896.97;4994839;28;119839;-64
2021/11/14 05:42:34;;;;;;;44.70;18.90;;;;;;;12.97;65.99;101901.34;4999491;28;123862;-65
2021/11/14 05:45:03;;;;;;;46.30;17.30;;;;;;;12.98;66.04;101903.09;4993953;28;123713;-64
2021/11/14 05:47:30;;;;;;;47.55;17.77;;;;;;;13.00;66.06;101917.19;4992344;28;118462;-64
2021/11/14 05:49:57;;;;;;;42.63;16.60;;;;;;;13.00;66.04;101911.88;4987629;28;118202;-65
2021/11/14 05:52:24;;;;;;;38.50;16.58;;;;;;;13.01;65.87;101910.94;4996375;28;124775;-66
2021/11/14 05:54:52;;;;;;;42.15;16.80;;;;;;;13.01;65.85;101918.91;5002704;28;124029;-65
2021/11/14 05:57:19;;;;;;;43.70;17.33;;;;;;;13.02;66.03;101915.34;5003267;28;119402;-65
2021/11/14 06:02:21;;;;;;;39.05;15.98;;;;;;;13.03;65.85;101921.53;4995576;28;124053;-65
2021/11/14 06:07:16;;;;;;;36.60;15.68;;;;;;;13.04;65.89;101923.28;4995755;28;119149;-65
2021/11/14 06:09:43;;;;;;;37.30;15.55;;;;;;;13.04;65.85;101928.59;4999299;28;119565;-65
2021/11/14 06:12:10;;;;;;;33.58;14.68;;;;;;;13.03;65.62;101933.06;4996614;28;124665;-65
2021/11/14 06:14:38;;;;;;;33.97;14.75;;;;;;;13.01;65.72;101934.88;4985961;28;122912;-64
2021/11/14 06:17:05;;;;;;;40.95;15.88;;;;;;;12.99;65.68;101931.41;4996751;28;119110;-65
2021/11/14 06:19:32;;;;;;;33.72;14.43;;;;;;;12.99;65.69;101928.75;4979485;28;119553;-65
2021/11/14 06:21:59;;;;;;;34.05;13.82;;;;;;;12.99;65.63;101935.88;4994329;28;123957;-65
2021/11/14 06:24:27;;;;;;;36.55;14.73;;;;;;;12.98;65.68;101940.31;4977185;28;123525;-64
2021/11/14 06:26:54;;;;;;;31.95;13.73;;;;;;;12.96;65.62;101952.81;4976333;28;120769;-64
2021/11/14 06:29:21;;;;;;;34.80;14.10;;;;;;;12.95;65.62;101950.22;4990561;28;120035;-64
2021/11/14 06:31:48;;;;;;;29.70;13.73;;;;;;;12.91;65.47;101943.28;4996534;28;124243;-64
2021/11/14 06:34:15;;;;;;;32.35;13.65;;;;;;;12.88;65.51;101948.69;4998529;28;123719;-64
2021/11/14 06:36:42;;;;;;;31.80;13.45;;;;;;;12.86;65.49;101962.03;4998229;28;119364;-64
2021/11/14 06:39:09;;;;;;;35.90;15.15;;;;;;;12.84;65.22;101963.88;4998835;28;119204;-65
2021/11/14 06:41:37;;;;;;;29.40;13.23;;;;;;;12.80;65.37;101972.91;4993841;28;124436;-65
2021/11/14 06:44:04;;;;;;;31.23;14.15;;;;;;;12.76;65.56;101977.47;4979299;28;124938;-65
2021/11/14 06:46:31;;;;;;;31.75;15.00;;;;;;;12.73;65.48;101982.00;4997533;28;119448;-64
2021/11/14 06:48:58;;;;;;;34.95;16.10;;;;;;;12.70;65.02;101992.78;4995067;28;118913;-65
2021/11/14 06:51:26;;;;;;;31.83;13.93;;;;;;;12.65;65.54;101991.13;4996927;28;124530;-65
2021/11/14 06:53:53;;;;;;;34.05;14.70;;;;;;;12.63;65.65;101998.28;4997172;28;124404;-64
2021/11/14 06:56:21;;;;;;;33.53;15.02;;;;;;;12.61;65.73;101994.81;4984078;28;118271;-64
2021/11/14 06:58:49;;;;;;;34.08;15.63;;;;;;;12.60;65.61;101993.09;4994753;28;118856;-65
2021/11/14 07:01:16;;;;;;;34.45;15.02;;;;;;;12.59;65.83;102001.97;4973065;28;123280;-66
2021/11/14 07:03:45;;;;;;;33.53;15.07;;;;;;;12.57;65.69;102009.13;4997718;28;124127;-66
2021/11/14 07:06:12;;;;;;;36.97;14.55;;;;;;;12.57;65.80;102014.47;4995321;28;119867;-66
2021/11/14 07:08:39;;;;;;;31.63;13.98;;;;;;;12.56;65.67;102028.66;4996061;28;119107;-66
2021/11/14 07:11:07;;;;;;;32.15;13.55;;;;;;;12.53;65.70;102034.09;5001709;28;124005;-66
2021/11/14 07:13:34;;;;;;;28.80;13.40;;;;;;;12.52;65.70;102037.66;4992569;28;124494;-66
2021/11/14 07:16:01;;;;;;;33.08;14.27;;;;;;;12.51;65.85;102035.94;4994399;28;120105;-66
2021/11/14 07:18:28;;;;;;;31.25;13.98;;;;;;;12.50;65.98;102050.13;4996691;28;120251;-64
2021/11/14 07:20:56;;;;;;;28.65;14.10;;;;;;;12.48;65.62;102051.97;5002936;28;123846;-65
2021/11/14 07:23:23;;;;;;;28.52;13.63;;;;;;;12.47;65.76;102055.56;4998000;28;124329;-65
2021/11/14 07:25:52;;;;;;;27.73;12.13;;;;;;;12.45;65.76;102057.38;4988370;28;119263;-64
2021/11/14 07:28:19;;;;;;;26.42;13.40;;;;;;;12.43;65.76;102053.91;5007666;28;118988;-64
2021/11/14 07:30:46;;;;;;;26.45;12.18;;;;;;;12.42;65.89;102062.81;4993755;28;123935;-64
2021/11/14 07:33:14;;;;;;;28.98;12.73;;;;;;;12.43;65.86;102064.53;5006577;28;124414;-64
2021/11/14 07:35:41;;;;;;;28.50;12.93;;;;;;;12.43;65.82;102069.84;4992156;28;118367;-64
2021/11/14 07:38:08;;;;;;;26.52;12.35;;;;;;;12.44;65.80;102076.91;5000752;28;119730;-64
2021/11/14 07:40:35;;;;;;;25.92;13.40;;;;;;;12.42;65.84;102079.63;4987582;28;124095;-64
2021/11/14 07:43:03;;;;;;;27.98;12.52;;;;;;;12.43;65.80;102080.47;4981725;28;123043;-64
2021/11/14 07:45:30;;;;;;;29.27;13.32;;;;;;;12.44;65.84;102076.91;4994500;28;119713;-64
2021/11/14 07:47:57;;;;;;;27.55;12.50;;;;;;;12.46;65.89;102083.03;5000743;28;119015;-64
2021/11/14 07:50:27;;;;;;;27.80;12.88;;;;;;;12.46;65.81;102091.00;5006943;28;124720;-65
2021/11/14 07:52:57;;;;;;;25.05;12.07;;;;;;;12.46;65.61;102088.34;4982909;28;123078;-65
2021/11/14 07:55:24;;;;;;;22.92;11.52;;;;;;;12.47;65.66;102095.44;5006739;28;119213;-65
2021/11/14 07:57:51;;;;;;;26.55;12.40;;;;;;;12.47;65.63;102087.44;5001985;28;119591;-65
2021/11/14 08:00:23;;;;;;;26.52;12.48;;;;;;;12.50;65.63;102091.78;5002900;28;124591;-65
2021/11/14 08:02:51;;;;;;;28.63;11.90;;;;;;;12.50;65.50;102108.59;5007750;28;123989;-66
2021/11/14 08:05:19;;;;;;;25.27;12.07;;;;;;;12.51;65.47;102106.78;5004439;28;120227;-64
2021/11/14 08:07:47;;;;;;;22.30;11.13;;;;;;;12.53;65.60;102113.81;5004058;28;120726;-64
2021/11/14 08:10:17;;;;;;;26.27;12.32;;;;;;;12.55;65.64;102111.97;4958769;28;122999;-65
2021/11/14 08:12:44;;;;;;;24.15;11.95;;;;;;;12.57;65.72;102114.59;5002571;28;124739;-65
2021/11/14 08:15:13;;;;;;;28.60;12.57;;;;;;;12.58;65.56;102122.50;4989832;28;119640;-65
2021/11/14 08:17:40;;;;;;;26.10;12.20;;;;;;;12.58;65.41;102122.50;4991368;28;118051;-65
2021/11/14 08:20:09;;;;;;;26.60;12.68;;;;;;;12.60;65.50;102123.34;5006697;28;123876;-65
2021/11/14 08:22:37;;;;;;;27.63;12.13;;;;;;;12.62;65.49;102126.81;4973877;28;123433;-65
2021/11/14 08:25:05;;;;;;;27.02;11.75;;;;;;;12.62;65.37;102129.47;5004106;28;119726;-65
2021/11/14 08:27:33;;;;;;;26.27;12.48;;;;;;;12.64;65.07;102138.25;4994766;28;117937;-65
2021/11/14 08:30:03;;;;;;;26.98;12.57;;;;;;;12.62;65.16;102140.09;4978675;28;123211;-65
2021/11/14 08:32:30;;;;;;;27.85;12.40;;;;;;;12.61;65.31;102148.97;5012667;28;124123;-65
2021/11/14 08:34:57;;;;;;;26.85;12.27;;;;;;;12.61;65.12;102137.47;5010296;28;119216;-65
2021/11/14 08:37:24;;;;;;;29.38;12.90;;;;;;;12.61;65.06;102153.44;4980219;28;119288;-65
2021/11/14 08:39:53;;;;;;;27.30;11.63;;;;;;;12.58;65.00;102149.09;4994614;28;123701;-66
2021/11/14 08:42:20;;;;;;;26.85;12.52;;;;;;;12.58;64.80;102153.50;5010364;28;123766;-65
2021/11/14 08:44:48;;;;;;;28.45;12.23;;;;;;;12.56;64.90;102156.22;5010004;28;119582;-65
2021/11/14 08:47:15;;;;;;;25.38;12.32;;;;;;;12.55;64.78;102154.50;4994155;28;119182;-64
2021/11/14 08:49:43;;;;;;;26.42;13.30;;;;;;;12.54;64.91;102163.38;5009232;28;124175;-64
2021/11/14 08:52:11;;;;;;;28.48;13.55;;;;;;;12.52;64.95;102170.53;5010627;28;123882;-64
2021/11/14 08:54:42;;;;;;;26.48;12.43;;;;;;;12.52;64.77;102170.53;4990150;28;119039;-64
2021/11/14 08:57:10;;;;;;;24.83;12.07;;;;;;;12.53;64.81;102177.59;5000647;28;119749;-64
2021/11/14 08:59:39;;;;;;;24.23;11.90;;;;;;;12.55;64.92;102182.88;4993686;28;123800;-64
2021/11/14 09:02:06;;;;;;;24.20;11.63;;;;;;;12.56;64.97;102182.78;4992988;28;123959;-64
2021/11/14 09:04:33;;;;;;;21.45;11.40;;;;;;;12.58;64.74;102191.63;4991129;28;119074;-64
2021/11/14 09:07:01;;;;;;;21.30;10.73;;;;;;;12.60;64.59;102184.47;5012701;28;119041;-64
2021/11/14 09:09:28;;;;;;;18.05;9.98;;;;;;;12.59;64.12;102193.34;4993746;28;124069;-64
2021/11/14 09:11:55;;;;;;;20.42;10.10;;;;;;;12.59;64.04;102198.66;4973091;28;123665;-64
2021/11/14 09:14:24;;;;;;;20.65;10.48;;;;;;;12.60;64.33;102199.50;5002123;28;119240;-64
2021/11/14 09:16:52;;;;;;;18.90;10.15;;;;;;;12.61;64.38;102196.81;4991307;28;118943;-64
2021/11/14 09:19:22;;;;;;;18.70;10.35;;;;;;;12.64;64.45;102207.34;5007866;28;124397;-64
2021/11/14 09:21:51;;;;;;;21.33;9.95;;;;;;;12.66;64.44;102209.97;4993379;28;123816;-64
2021/11/14 09:24:18;;;;;;;20.05;10.90;;;;;;;12.70;64.37;102210.75;5009532;28;119366;-64
2021/11/14 09:26:45;;;;;;;20.88;10.50;;;;;;;12.72;64.10;102219.53;5009500;28;119168;-64
2021/11/14 09:29:13;;;;;;;17.95;10.90;;;;;;;12.75;64.26;102216.75;4990909;28;123189;-64
2021/11/14 09:31:40;;;;;;;19.67;10.63;;;;;;;12.78;64.23;102222.00;5010623;28;123745;-64
2021/11/14 09:34:08;;;;;;;19.75;11.30;;;;;;;12.81;64.29;102217.44;5008497;28;119228;-64
2021/11/14 09:36:37;;;;;;;22.42;10.80;;;;;;;12.84;64.06;102224.44;5008342;28;119121;-64
2021/11/14 09:39:11;;;;;;;25.50;11.68;;;;;;;12.91;64.36;102225.13;5009588;28;124029;-63
2021/11/14 09:41:50;;;;;;;22.63;11.52;;;;;;;12.98;64.34;102222.22;5009050;28;124363;-64
2021/11/14 09:44:19;;;;;;;19.65;11.07;;;;;;;13.09;64.42;102234.28;5007450;28;121144;-64
2021/11/14 09:46:50;;;;;;;20.35;11.68;;;;;;;13.15;64.19;102239.41;5009169;28;120981;-64
2021/11/14 09:49:26;;;;;;;21.48;11.32;;;;;;;13.20;64.23;102232.13;5008177;28;124491;-64
2021/11/14 09:51:55;;;;;;;17.75;9.95;;;;;;;13.27;63.89;102233.66;5009483;28;123687;-64
2021/11/14 09:54:25;;;;;;;22.70;11.52;;;;;;;13.32;63.89;102237.09;5008264;28;119103;-64
2021/11/14 09:56:54;;;;;;;22.95;12.35;;;;;;;13.38;64.03;102242.19;5011877;28;119034;-64
2021/11/14 09:59:22;;;;;;;21.35;11.60;;;;;;;13.43;63.77;102244.72;5008001;28;124097;-64
2021/11/14 10:01:51;;;;;;;19.55;11.05;;;;;;;13.46;63.55;102246.38;5009409;28;123884;-64
2021/11/14 10:04:20;;;;;;;21.85;11.15;;;;;;;13.46;63.61;102243.72;4993451;28;118380;-64
2021/11/14 10:07:03;;;;;;;21.73;11.25;;;;;;;13.49;63.63;102243.63;5008762;28;119869;-64
2021/11/14 10:09:38;;;;;;;22.15;11.30;;;;;;;13.54;63.35;102246.97;4992217;28;123136;-64
2021/11/14 10:12:15;;;;;;;;;;;;;;;13.55;63.51;102243.41;4992166;28;123905;-64
2021/11/14 10:14:44;;;;;;;19.95;10.68;;;;;;;13.60;63.55;102257.44;5007853;28;119738;-64
2021/11/14 10:17:23;;;;;;;19.55;10.55;;;;;;;13.62;63.43;102252.91;4982026;28;117872;-63
2021/11/14 10:20:13;;;;;;;18.90;11.00;;;;;;;13.67;63.30;102248.28;4992976;28;124398;-64
2021/11/14 10:22:44;;;;;;;18.77;10.63;;;;;;;13.72;63.02;102254.31;4999938;28;123926;-64
2021/11/14 10:25:14;;;;;;;19.77;11.40;;;;;;;13.75;63.06;102256.88;5009930;28;119198;-64
2021/11/14 10:27:42;;;;;;;20.98;10.98;;;;;;;13.79;62.83;102258.50;4989137;28;119286;-64
2021/11/14 10:30:12;;;;;;;19.20;10.95;;;;;;;13.81;62.82;102255.78;5000115;28;123962;-64
2021/11/14 10:32:40;;;;;;;18.25;10.68;;;;;;;13.86;62.60;102263.59;5010560;28;123797;-64
2021/11/14 10:35:07;;;;;;;16.92;10.57;;;;;;;13.86;62.44;102268.94;5008054;28;120284;-64
2021/11/14 10:37:44;;;;;;;18.02;10.32;;;;;;;13.86;62.45;102263.59;5008164;28;120093;-63
2021/11/14 10:40:19;;;;;;;18.15;10.98;;;;;;;13.89;62.39;102266.16;5007717;28;123884;-64
2021/11/14 10:42:49;;;;;;;18.30;10.57;;;;;;;13.90;62.00;102265.22;5005909;28;124519;-64
2021/11/14 10:45:18;;;;;;;18.60;10.98;;;;;;;13.89;61.77;102274.16;4981851;28;119624;-64
2021/11/14 10:48:00;;;;;;;17.58;10.57;;;;;;;13.89;61.98;102279.47;5007899;28;119094;-64
2021/11/14 10:50:32;;;;;;;16.88;10.70;;;;;;;13.87;61.79;102281.34;5007266;28;124159;-64
2021/11/14 10:53:02;;;;;;;18.08;10.45;;;;;;;13.86;61.66;102274.25;5010877;28;124622;-65
2021/11/14 10:55:33;;;;;;;18.85;11.10;;;;;;;13.83;61.42;102281.44;5008101;28;119353;-65
2021/11/14 10:58:00;;;;;;;18.23;10.25;;;;;;;13.84;61.59;102276.97;5004059;28;120195;-65
2021/11/14 11:00:42;;;;;;;16.65;10.45;;;;;;;13.86;61.74;102282.25;4998774;28;125162;-63
2021/11/14 11:03:21;;;;;;;17.85;10.07;;;;;;;13.87;61.46;102281.34;4987088;28;123798;-65
2021/11/14 11:05:48;;;;;;;16.00;10.05;;;;;;;13.87;61.42;102281.34;4987840;28;119567;-65
2021/11/14 11:08:22;;;;;;;17.40;10.40;;;;;;;13.87;61.39;102281.34;4992408;28;119042;-65
2021/11/14 11:11:02;;;;;;;16.70;10.40;;;;;;;13.87;61.29;102278.66;4995676;28;124757;-65
2021/11/14 11:13:41;;;;;;;16.45;10.00;;;;;;;13.86;61.31;102274.25;4991759;28;123247;-64